Time;durP1;ratioP1;P1;durP2;ratioP2;P2;SDS_P1;SDS_P2;PMS_P1;PMS_P2;Temp;Humidity;BMP_temperature;BMP_pressure;BME280_temperature;BME280_humidity;BME280_pressure;Samples;Min_cycle;Max_cycle;Signal;HPM_P1;HPM_P2
2021/06/17 00:01:02;;;;;;;11.20;4.60;;;;;;;25.28;42.59;96341.03;5050476;28;20194;-70
2021/06/17 00:03:28;;;;;;;6.50;4.70;;;;;;;25.28;42.57;96341.03;5052006;28;20735;-68
2021/06/17 00:05:54;;;;;;;6.13;4.50;;;;;;;25.25;42.34;96346.91;5043424;28;20229;-68
2021/06/17 00:08:19;;;;;;;6.47;5.13;;;;;;;25.20;42.90;96344.25;5043034;28;20194;-69
2021/06/17 00:10:47;;;;;;;7.00;4.17;;;;;;;25.16;42.54;96343.16;5054257;28;20183;-68
2021/06/17 00:13:17;;;;;;;4.53;4.13;;;;;;;25.12;42.49;96339.41;5055484;28;20221;-66
2021/06/17 00:15:44;;;;;;;5.30;4.30;;;;;;;25.06;42.36;96333.22;5046441;28;20545;-68
2021/06/17 00:18:11;;;;;;;5.20;4.67;;;;;;;25.05;42.59;96336.97;5055258;28;21053;-69
2021/06/17 00:20:37;;;;;;;5.83;4.10;;;;;;;25.01;42.78;96330.56;5055949;28;20478;-68
2021/06/17 00:23:03;;;;;;;5.47;4.23;;;;;;;24.95;42.82;96326.25;5053171;28;20481;-68
2021/06/17 00:25:29;;;;;;;4.70;4.30;;;;;;;24.90;43.06;96339.63;5057242;28;20846;-70
2021/06/17 00:27:55;;;;;;;6.63;5.60;;;;;;;24.83;43.18;96334.53;5053954;28;20446;-68
2021/06/17 00:30:21;;;;;;;6.07;4.47;;;;;;;24.81;43.32;96332.13;5055334;28;20268;-69
2021/06/17 00:32:47;;;;;;;12.00;4.20;;;;;;;24.81;43.58;96334.81;5054068;28;20543;-68
2021/06/17 00:35:13;;;;;;;10.70;5.20;;;;;;;24.75;43.95;96337.75;5045732;28;20441;-68
2021/06/17 00:37:39;;;;;;;4.93;4.10;;;;;;;24.69;44.16;96334.25;5044416;28;20661;-68
2021/06/17 00:40:07;;;;;;;4.83;4.37;;;;;;;24.67;44.17;96329.13;5050224;28;20437;-69
2021/06/17 00:42:33;;;;;;;10.00;4.47;;;;;;;24.68;44.11;96336.09;5053969;28;20457;-68
2021/06/17 00:44:59;;;;;;;5.27;4.20;;;;;;;24.63;44.38;96330.72;5051686;28;20406;-68
2021/06/17 00:47:25;;;;;;;4.83;4.43;;;;;;;24.60;44.33;96331.25;5051914;28;20792;-69
2021/06/17 00:49:50;;;;;;;8.63;4.57;;;;;;;24.54;44.41;96333.09;5045545;28;20171;-67
2021/06/17 00:52:16;;;;;;;8.60;5.37;;;;;;;24.54;43.94;96321.59;5052986;28;20805;-68
2021/06/17 00:54:42;;;;;;;7.00;4.63;;;;;;;24.50;43.99;96324.00;5052303;28;20666;-69
2021/06/17 00:57:09;;;;;;;5.53;4.60;;;;;;;24.45;44.33;96321.31;5052095;28;20203;-67
2021/06/17 00:59:35;;;;;;;5.77;4.70;;;;;;;24.44;44.46;96316.22;5053716;28;20237;-68
2021/06/17 01:02:01;;;;;;;6.57;5.03;;;;;;;24.39;44.79;96322.34;5052535;28;20413;-68
2021/06/17 01:04:28;;;;;;;5.57;4.73;;;;;;;24.30;44.75;96316.72;5052429;28;20414;-68
2021/06/17 01:06:54;;;;;;;7.57;4.93;;;;;;;24.32;44.70;96316.44;5042351;28;20224;-67
2021/06/17 01:10:03;;;;;;;6.20;5.20;;;;;;;24.28;44.95;96321.50;5052166;28;20428;-69
2021/06/17 01:12:49;;;;;;;9.20;5.50;;;;;;;24.22;45.16;96311.84;5014368;28;20422;-69
2021/06/17 01:15:19;;;;;;;9.77;5.47;;;;;;;24.25;45.02;96315.88;5052884;28;20446;-68
2021/06/17 01:17:55;;;;;;;5.10;4.60;;;;;;;24.20;45.15;96316.66;5051822;28;20488;-70
2021/06/17 01:20:36;;;;;;;5.90;4.60;;;;;;;24.15;45.15;96313.97;5050130;28;20935;-69
2021/06/17 01:23:09;;;;;;;9.47;5.00;;;;;;;23.99;45.43;96308.53;5044681;28;20414;-70
2021/06/17 01:25:43;;;;;;;8.43;5.03;;;;;;;24.00;45.23;96312.81;5036536;28;20838;-70
2021/06/17 01:28:19;;;;;;;5.33;4.70;;;;;;;23.98;45.19;96306.13;5044942;28;20440;-69
2021/06/17 01:31:01;;;;;;;8.23;4.80;;;;;;;23.97;44.68;96299.97;5053761;28;20421;-69
2021/06/17 01:33:31;;;;;;;6.63;4.53;;;;;;;23.95;44.77;96299.38;5036734;28;20512;-70
2021/06/17 01:36:00;;;;;;;12.73;4.83;;;;;;;23.97;44.61;96291.94;5051899;28;20406;-69
2021/06/17 01:38:26;;;;;;;6.83;4.67;;;;;;;23.96;44.64;96293.00;5043483;28;20426;-69
2021/06/17 01:40:52;;;;;;;10.23;5.00;;;;;;;23.93;44.81;96288.94;5052702;28;20479;-70
2021/06/17 01:43:19;;;;;;;7.07;4.63;;;;;;;23.90;44.61;96280.66;5051246;28;20425;-69
2021/06/17 01:45:46;;;;;;;6.60;4.80;;;;;;;23.90;44.70;96280.66;5053246;28;20224;-69
2021/06/17 01:48:12;;;;;;;10.90;5.07;;;;;;;23.86;45.04;96279.53;5051541;28;20426;-69
2021/06/17 01:50:38;;;;;;;6.60;5.10;;;;;;;23.82;44.98;96278.47;5046169;28;20436;-68
2021/06/17 01:53:04;;;;;;;5.30;4.50;;;;;;;23.80;44.97;96277.94;5052324;28;20179;-68
2021/06/17 01:55:32;;;;;;;6.03;5.23;;;;;;;23.78;45.00;96284.34;5050149;28;20569;-69
2021/06/17 01:58:05;;;;;;;6.73;5.20;;;;;;;23.77;45.30;96280.06;5051404;28;20437;-70
2021/06/17 02:00:31;;;;;;;5.20;4.70;;;;;;;23.75;45.52;96276.81;5036905;28;20425;-70
2021/06/17 02:02:59;;;;;;;5.23;4.70;;;;;;;23.70;46.19;96276.78;5051593;28;20437;-68
2021/06/17 02:05:24;;;;;;;10.37;4.67;;;;;;;23.67;46.00;96282.69;5035939;28;20523;-71
2021/06/17 02:07:51;;;;;;;10.57;4.97;;;;;;;23.62;46.01;96277.28;5043999;28;20442;-70
2021/06/17 02:10:19;;;;;;;6.03;4.30;;;;;;;23.61;45.76;96273.00;5050572;28;20545;-69
2021/06/17 02:12:46;;;;;;;7.13;4.33;;;;;;;23.61;45.62;96273.00;5050074;28;20951;-72
2021/06/17 02:15:12;;;;;;;5.03;4.10;;;;;;;23.54;45.45;96261.75;5049953;28;20450;-71
2021/06/17 02:17:42;;;;;;;5.00;4.03;;;;;;;23.51;45.51;96264.94;5049931;28;20502;-68
2021/06/17 02:20:08;;;;;;;5.00;3.83;;;;;;;23.47;45.42;96267.31;5043194;28;20450;-69
2021/06/17 02:22:35;;;;;;;7.33;4.37;;;;;;;23.44;45.48;96265.94;5047411;28;20890;-70
2021/06/17 02:25:01;;;;;;;6.07;5.00;;;;;;;23.39;45.81;96271.28;5051406;28;20421;-70
2021/06/17 02:27:30;;;;;;;5.47;4.13;;;;;;;23.38;45.74;96272.34;5050555;28;20438;-69
2021/06/17 02:30:00;;;;;;;7.53;4.53;;;;;;;23.33;45.58;96272.28;5025654;28;20425;-68
2021/06/17 02:32:27;;;;;;;5.57;4.60;;;;;;;23.29;45.40;96287.25;5033325;28;20848;-69
2021/06/17 02:34:54;;;;;;;11.93;4.40;;;;;;;23.28;45.15;96288.31;5051678;28;20449;-71
2021/06/17 02:37:20;;;;;;;6.43;3.80;;;;;;;23.29;45.25;96290.72;5041415;28;20477;-71
2021/06/17 02:39:49;;;;;;;6.20;3.93;;;;;;;23.25;45.06;96283.47;5049796;28;20944;-71
2021/06/17 02:42:17;;;;;;;4.73;4.33;;;;;;;23.21;45.02;96285.84;5041887;28;20425;-70
2021/06/17 02:44:44;;;;;;;6.07;3.93;;;;;;;23.13;45.55;96287.09;5049908;28;20933;-69
2021/06/17 02:47:11;;;;;;;6.53;4.17;;;;;;;23.11;45.77;96288.41;5051566;28;20495;-70
2021/06/17 02:49:38;;;;;;;4.53;3.90;;;;;;;23.11;45.46;96291.09;5050416;28;20413;-68
2021/06/17 02:52:04;;;;;;;6.00;3.90;;;;;;;23.11;45.59;96297.22;5042615;28;20475;-69
2021/06/17 02:54:30;;;;;;;8.67;5.03;;;;;;;23.08;45.27;96296.94;5042231;28;20446;-69
2021/06/17 02:57:20;;;;;;;9.60;5.50;;;;;;;23.04;45.54;96293.97;5050584;28;21169;-69
2021/06/17 03:00:03;;;;;;;6.47;4.50;;;;;;;22.96;45.81;96294.41;5043652;28;20175;-69
2021/06/17 03:02:36;;;;;;;7.27;4.57;;;;;;;22.91;45.97;96292.50;5051793;28;20796;-71
2021/06/17 03:05:09;;;;;;;5.37;4.33;;;;;;;22.90;46.14;96293.56;5050415;28;21091;-69
2021/06/17 03:07:44;;;;;;;6.33;4.30;;;;;;;22.91;45.79;96294.41;5041310;28;20445;-70
2021/06/17 03:10:11;;;;;;;6.40;4.73;;;;;;;22.82;46.04;96294.84;5050639;28;20844;-70
2021/06/17 03:12:39;;;;;;;5.80;4.20;;;;;;;22.70;46.63;96302.19;5054744;28;20453;-69
2021/06/17 03:15:06;;;;;;;8.57;4.50;;;;;;;22.62;46.74;96313.34;5050107;28;20443;-68
2021/06/17 03:17:39;;;;;;;4.47;4.07;;;;;;;22.71;45.95;96301.13;5034050;28;20449;-69
2021/06/17 03:20:06;;;;;;;5.57;3.83;;;;;;;22.75;45.89;96302.25;5050938;28;20425;-69
2021/06/17 03:22:33;;;;;;;4.63;3.90;;;;;;;22.76;45.97;96303.88;5049583;28;20421;-69
2021/06/17 03:25:06;;;;;;;5.73;3.50;;;;;;;22.85;45.58;96305.00;5046614;28;20458;-69
2021/06/17 03:27:32;;;;;;;9.60;4.07;;;;;;;22.75;45.35;96315.59;5035872;28;20812;-72
2021/06/17 03:30:00;;;;;;;5.33;4.30;;;;;;;22.67;45.35;96316.06;5056318;28;20425;-71
2021/06/17 03:32:27;;;;;;;6.30;3.83;;;;;;;22.57;45.92;96315.94;5050909;28;20448;-69
2021/06/17 03:34:53;;;;;;;8.47;3.93;;;;;;;22.43;45.92;96319.00;5049374;28;20457;-70
2021/06/17 03:37:21;;;;;;;5.10;4.00;;;;;;;22.53;45.49;96319.13;5049322;28;20440;-70
2021/06/17 03:39:48;;;;;;;6.20;4.50;;;;;;;22.71;44.99;96327.84;5049364;28;20433;-71
2021/06/17 03:42:15;;;;;;;7.13;4.37;;;;;;;22.79;44.85;96321.25;5051210;28;20422;-70
2021/06/17 03:44:41;;;;;;;12.23;4.10;;;;;;;22.86;44.88;96314.66;5053200;28;20417;-70
2021/06/17 03:47:08;;;;;;;3.87;3.57;;;;;;;22.96;44.60;96327.28;5052420;28;20452;-71
2021/06/17 03:49:35;;;;;;;3.73;3.23;;;;;;;23.07;44.21;96317.50;5052789;28;20871;-71
2021/06/17 03:52:01;;;;;;;4.53;3.60;;;;;;;23.15;44.19;96314.38;5052090;28;20445;-70
2021/06/17 03:54:27;;;;;;;5.00;3.83;;;;;;;23.20;43.93;96320.81;5054022;28;20543;-70
2021/06/17 03:56:55;;;;;;;5.80;4.00;;;;;;;23.23;43.80;96313.13;5034542;28;20499;-70
2021/06/17 03:59:23;;;;;;;8.43;3.50;;;;;;;23.31;43.51;96322.53;5052300;28;20428;-70
2021/06/17 04:01:50;;;;;;;5.70;4.00;;;;;;;23.38;42.94;96316.94;5052974;28;20426;-68
2021/06/17 04:04:15;;;;;;;21.83;7.97;;;;;;;23.43;43.43;96325.03;5053850;28;20497;-71
2021/06/17 04:06:41;;;;;;;10.10;4.53;;;;;;;23.51;43.10;96332.56;5053446;28;20448;-67
2021/06/17 04:09:07;;;;;;;4.83;3.47;;;;;;;23.57;42.52;96333.41;5052112;28;20207;-68
2021/06/17 04:11:33;;;;;;;8.27;3.77;;;;;;;23.65;42.44;96338.28;5052606;28;20916;-70
2021/06/17 04:13:58;;;;;;;7.80;3.80;;;;;;;23.74;42.59;96343.97;5051672;28;20214;-69
2021/06/17 04:16:26;;;;;;;8.70;3.60;;;;;;;23.89;42.48;96338.69;5036223;28;20198;-71
2021/06/17 04:18:53;;;;;;;6.57;3.40;;;;;;;23.98;41.98;96343.59;5052811;28;20198;-70
2021/06/17 04:21:20;;;;;;;5.67;4.00;;;;;;;24.07;41.58;96344.69;5049161;28;20537;-70
2021/06/17 04:23:48;;;;;;;3.93;3.10;;;;;;;24.15;41.38;96346.06;5052229;28;20426;-68
2021/06/17 04:26:17;;;;;;;8.63;3.67;;;;;;;24.27;40.81;96353.88;5051900;28;20499;-70
2021/06/17 04:28:42;;;;;;;7.70;3.20;;;;;;;24.34;40.22;96352.56;5048769;28;20421;-69
2021/06/17 04:31:09;;;;;;;5.10;3.50;;;;;;;24.44;40.36;96351.81;5052358;28;20518;-68
2021/06/17 04:33:35;;;;;;;5.00;3.90;;;;;;;24.57;39.68;96358.56;5053611;28;20175;-70
2021/06/17 04:36:02;;;;;;;4.47;3.40;;;;;;;24.67;39.68;96363.13;5052354;28;20476;-68
2021/06/17 04:38:28;;;;;;;7.83;3.77;;;;;;;24.74;39.92;96361.06;5053618;28;20209;-68
2021/06/17 04:40:54;;;;;;;3.40;3.10;;;;;;;24.81;39.90;96358.13;5039787;28;20588;-69
2021/06/17 04:43:23;;;;;;;5.77;3.57;;;;;;;24.84;39.38;96354.91;5053015;28;20257;-69
2021/06/17 04:45:51;;;;;;;6.73;4.63;;;;;;;24.89;38.93;96354.13;5053784;28;20449;-70
2021/06/17 04:48:17;;;;;;;5.33;4.00;;;;;;;25.04;38.97;96364.06;5052571;28;20426;-70
2021/06/17 04:50:44;;;;;;;13.70;3.93;;;;;;;25.13;38.63;96357.91;5053448;28;20418;-70
2021/06/17 04:53:15;;;;;;;8.07;4.70;;;;;;;25.17;38.74;96357.34;5052667;28;20171;-69
2021/06/17 04:55:52;;;;;;;12.63;4.30;;;;;;;25.36;38.60;96346.91;5054541;28;20575;-69
2021/06/17 04:58:20;;;;;;;5.30;3.80;;;;;;;25.34;38.39;96349.03;5050553;28;20797;-70
2021/06/17 05:00:45;;;;;;;18.57;6.20;;;;;;;25.27;38.48;96358.16;5053668;28;20417;-69
2021/06/17 05:03:12;;;;;;;7.80;3.77;;;;;;;25.65;38.17;96357.91;5052905;28;20441;-70
2021/06/17 05:05:38;;;;;;;8.10;3.80;;;;;;;25.74;37.77;96353.63;5052877;28;20429;-71
2021/06/17 05:10:53;;;;;;;10.57;4.10;;;;;;;25.93;37.77;96350.34;5052721;28;20171;-70
2021/06/17 05:13:21;;;;;;;7.73;3.90;;;;;;;26.06;37.42;96349.00;5044552;28;20426;-68
2021/06/17 05:15:47;;;;;;;4.30;3.20;;;;;;;26.15;37.71;96357.31;5053113;28;20457;-67
2021/06/17 05:18:14;;;;;;;7.13;3.40;;;;;;;26.19;38.06;96364.56;5052797;28;20457;-69
2021/06/17 05:20:40;;;;;;;5.90;3.70;;;;;;;26.32;37.76;96357.00;5052810;28;20798;-70
2021/06/17 05:23:06;;;;;;;4.93;4.00;;;;;;;26.30;37.81;96364.50;5050332;28;20497;-70
2021/06/17 05:25:31;;;;;;;9.20;4.67;;;;;;;26.27;38.19;96359.69;5052935;28;20212;-70
2021/06/17 05:27:57;;;;;;;9.03;5.13;;;;;;;26.36;37.79;96363.41;5043950;28;20248;-69
2021/06/17 05:30:23;;;;;;;8.33;3.40;;;;;;;26.58;37.59;96373.00;5051895;28;20225;-70
2021/06/17 05:32:48;;;;;;;13.60;5.70;;;;;;;26.64;37.61;96369.19;5052593;28;20179;-71
2021/06/17 05:35:14;;;;;;;9.07;4.50;;;;;;;26.58;37.72;96364.94;5051633;28;20202;-69
2021/06/17 05:37:39;;;;;;;4.53;3.43;;;;;;;26.80;37.06;96372.63;5052066;28;20230;-71
2021/06/17 05:40:06;;;;;;;6.10;4.10;;;;;;;26.98;36.95;96372.00;5045579;28;20658;-69
2021/06/17 05:42:32;;;;;;;5.50;3.40;;;;;;;26.91;37.00;96362.63;5038375;28;20270;-69
2021/06/17 05:44:57;;;;;;;9.93;3.63;;;;;;;26.62;37.80;96377.53;5051771;28;20457;-68
2021/06/17 05:47:23;;;;;;;6.23;3.50;;;;;;;26.52;38.11;96367.63;5036860;28;20200;-67
2021/06/17 05:49:49;;;;;;;6.90;3.57;;;;;;;26.88;37.49;96373.94;5024368;28;20176;-66
2021/06/17 05:52:15;;;;;;;12.77;3.80;;;;;;;27.13;37.12;96376.44;5048253;28;20172;-66
2021/06/17 05:54:40;;;;;;;5.47;3.60;;;;;;;27.36;37.14;96373.34;5041754;28;20314;-66
2021/06/17 05:57:06;;;;;;;6.50;3.53;;;;;;;27.46;37.05;96375.97;5028520;28;20462;-68
2021/06/17 05:59:32;;;;;;;10.30;3.70;;;;;;;27.42;37.33;96377.59;5049215;28;20179;-68
2021/06/17 06:01:58;;;;;;;7.67;3.40;;;;;;;27.64;37.00;96374.47;5030943;28;20481;-67
2021/06/17 06:04:24;;;;;;;6.90;4.07;;;;;;;27.72;36.80;96373.06;5044251;28;20448;-68
2021/06/17 06:06:49;;;;;;;3.90;3.20;;;;;;;27.87;36.05;96372.91;5053671;28;20235;-67
2021/06/17 06:09:15;;;;;;;7.57;3.43;;;;;;;27.94;36.11;96364.50;5028916;28;20176;-68
2021/06/17 06:11:41;;;;;;;5.33;3.60;;;;;;;28.08;35.84;96366.53;5047780;28;20179;-67
2021/06/17 06:14:06;;;;;;;8.70;3.60;;;;;;;28.33;35.18;96371.66;5034555;28;20230;-69
2021/06/17 06:16:34;;;;;;;3.53;3.20;;;;;;;28.46;34.52;96363.97;5039616;28;20286;-67
2021/06/17 06:19:00;;;;;;;4.53;2.97;;;;;;;28.63;34.59;96372.34;5053616;28;20186;-66
2021/06/17 06:21:25;;;;;;;6.23;3.43;;;;;;;28.82;34.28;96368.91;5042302;28;20894;-67
2021/06/17 06:23:51;;;;;;;6.30;3.30;;;;;;;28.70;34.79;96371.19;5043633;28;20550;-66
2021/06/17 06:26:17;;;;;;;5.63;4.00;;;;;;;29.04;33.90;96379.13;5051269;28;20199;-66
2021/06/17 06:28:44;;;;;;;8.30;3.60;;;;;;;29.14;33.30;96370.06;5052346;28;20268;-68
2021/06/17 06:31:10;;;;;;;10.33;3.10;;;;;;;29.38;33.21;96383.47;5052368;28;20179;-67
2021/06/17 06:33:36;;;;;;;8.00;3.50;;;;;;;29.47;33.10;96378.22;5051365;28;20892;-66
2021/06/17 06:36:02;;;;;;;4.77;3.50;;;;;;;29.37;32.82;96383.75;5052086;28;20540;-66
2021/06/17 06:38:28;;;;;;;4.57;3.37;;;;;;;29.62;32.60;96384.44;5049930;28;20175;-67
2021/06/17 06:40:54;;;;;;;3.80;3.07;;;;;;;29.93;32.37;96383.91;5052813;28;20249;-67
2021/06/17 06:43:19;;;;;;;5.80;3.47;;;;;;;30.15;32.28;96375.97;5051617;28;20434;-66
2021/06/17 06:45:46;;;;;;;6.40;3.50;;;;;;;30.44;31.92;96387.56;5052070;28;20171;-68
2021/06/17 06:48:12;;;;;;;7.37;3.30;;;;;;;30.68;31.60;96390.06;5048722;28;20210;-67
2021/06/17 06:50:39;;;;;;;3.83;3.43;;;;;;;30.41;30.78;96397.06;5039684;28;20482;-67
2021/06/17 06:53:05;;;;;;;4.33;3.07;;;;;;;30.41;30.78;96388.97;5051593;28;20428;-66
2021/06/17 06:55:30;;;;;;;6.07;5.47;;;;;;;30.61;30.95;96393.19;5051237;28;20458;-68
2021/06/17 06:57:56;;;;;;;3.23;2.93;;;;;;;30.85;30.19;96394.06;5054049;28;20287;-68
2021/06/17 07:00:22;;;;;;;8.97;3.10;;;;;;;30.71;30.45;96402.19;5060017;28;20179;-68
2021/06/17 07:02:48;;;;;;;7.73;3.07;;;;;;;31.03;30.46;96403.91;5061453;28;20255;-68
2021/06/17 07:05:14;;;;;;;3.03;2.83;;;;;;;31.31;29.89;96398.44;5053707;28;20171;-66
2021/06/17 07:07:40;;;;;;;5.60;3.23;;;;;;;31.25;29.86;96399.69;5049713;28;20890;-66
2021/06/17 07:10:07;;;;;;;3.93;2.73;;;;;;;31.36;29.46;96406.47;5051582;28;20852;-69
2021/06/17 07:12:34;;;;;;;7.03;2.80;;;;;;;31.57;29.03;96408.66;5060033;28;20428;-69
2021/06/17 07:14:59;;;;;;;5.83;3.30;;;;;;;31.88;28.99;96410.66;5060782;28;20441;-65
2021/06/17 07:17:26;;;;;;;4.00;2.83;;;;;;;31.57;29.06;96408.66;5061965;28;20476;-70
2021/06/17 07:19:55;;;;;;;8.30;3.10;;;;;;;31.74;28.49;96407.22;5052998;28;20257;-68
2021/06/17 07:22:22;;;;;;;3.10;2.80;;;;;;;31.76;27.59;96402.28;5043755;28;20410;-65
2021/06/17 07:24:48;;;;;;;6.53;3.00;;;;;;;31.35;28.43;96404.03;5042904;28;20448;-68
2021/06/17 07:27:13;;;;;;;6.87;3.07;;;;;;;31.67;28.77;96405.69;5032304;28;20447;-68
2021/06/17 07:29:39;;;;;;;6.10;3.30;;;;;;;32.05;28.17;96406.41;5050139;28;20517;-68
2021/06/17 07:32:06;;;;;;;4.90;2.70;;;;;;;32.42;27.03;96407.88;5049631;28;20558;-68
2021/06/17 07:34:32;;;;;;;3.93;2.70;;;;;;;32.18;27.75;96402.81;5048884;28;20199;-68
2021/06/17 07:36:57;;;;;;;8.30;2.73;;;;;;;32.42;27.46;96402.47;5049257;28;20444;-68
2021/06/17 07:39:23;;;;;;;3.57;2.97;;;;;;;32.14;28.33;96407.25;5046653;28;20238;-68
2021/06/17 07:41:49;;;;;;;5.90;2.80;;;;;;;32.77;27.51;96399.00;5049612;28;20194;-68
2021/06/17 07:44:15;;;;;;;5.90;2.50;;;;;;;32.89;27.20;96404.63;5050409;28;20171;-67
2021/06/17 07:46:41;;;;;;;5.30;3.17;;;;;;;32.63;27.73;96407.28;5051353;28;20495;-68
2021/06/17 07:49:06;;;;;;;11.43;3.07;;;;;;;33.02;27.44;96399.38;5051539;28;20187;-68
2021/06/17 07:51:32;;;;;;;6.63;3.70;;;;;;;33.34;27.24;96389.19;5033228;28;20258;-67
2021/06/17 07:54:01;;;;;;;4.87;2.60;;;;;;;33.56;26.47;96390.13;5050542;28;20182;-68
2021/06/17 07:56:28;;;;;;;7.07;2.63;;;;;;;33.69;25.62;96379.09;5051477;28;20221;-68
2021/06/17 07:58:54;;;;;;;3.00;2.70;;;;;;;33.89;26.60;96376.03;5051319;28;21118;-67
2021/06/17 08:01:20;;;;;;;3.80;3.00;;;;;;;34.07;26.29;96369.41;5050598;28;20426;-69
2021/06/17 08:03:45;;;;;;;6.50;2.90;;;;;;;33.81;25.69;96381.13;5050517;28;20417;-68
2021/06/17 08:06:11;;;;;;;6.13;3.00;;;;;;;34.26;25.17;96387.25;5050900;28;20536;-68
2021/06/17 08:08:37;;;;;;;3.93;3.63;;;;;;;34.13;25.45;96386.34;5047332;28;20297;-67
2021/06/17 08:11:02;;;;;;;5.40;2.80;;;;;;;34.25;24.51;96386.44;5049154;28;20182;-67
2021/06/17 08:13:28;;;;;;;6.00;2.70;;;;;;;34.65;24.23;96392.66;5041420;28;20576;-68
2021/06/17 08:15:53;;;;;;;3.20;2.60;;;;;;;33.64;25.64;96402.91;5048622;28;20281;-68
2021/06/17 08:18:19;;;;;;;6.00;2.50;;;;;;;34.20;25.96;96400.22;5050132;28;20229;-68
2021/06/17 08:20:45;;;;;;;4.70;2.63;;;;;;;34.60;24.88;96396.38;5049208;28;20184;-68
2021/06/17 08:23:11;;;;;;;5.67;2.50;;;;;;;34.83;25.12;96385.19;5048080;28;20205;-68
2021/06/17 08:25:37;;;;;;;5.97;2.40;;;;;;;35.05;25.15;96384.88;5050021;28;20182;-67
2021/06/17 08:28:06;;;;;;;4.40;2.70;;;;;;;34.98;25.20;96384.63;5049147;28;20260;-67
2021/06/17 08:30:33;;;;;;;4.60;2.20;;;;;;;35.12;24.37;96383.56;5052629;28;20521;-67
2021/06/17 08:32:59;;;;;;;5.37;2.53;;;;;;;35.10;24.69;96381.16;5053641;28;20421;-68
2021/06/17 08:35:25;;;;;;;3.53;2.70;;;;;;;35.03;25.30;96383.63;5036906;28;20587;-67
2021/06/17 08:37:50;;;;;;;3.10;2.80;;;;;;;34.40;26.01;96390.56;5054285;28;20261;-69
2021/06/17 08:40:16;;;;;;;4.97;3.07;;;;;;;34.26;26.28;96392.69;5052726;28;20194;-69
2021/06/17 08:42:42;;;;;;;7.17;3.10;;;;;;;34.90;25.66;96385.47;5054099;28;20175;-68
2021/06/17 08:45:10;;;;;;;5.60;2.73;;;;;;;35.15;24.83;96372.03;5052306;28;20265;-68
2021/06/17 08:47:37;;;;;;;3.13;2.83;;;;;;;35.52;24.18;96374.91;5051590;28;20226;-68
2021/06/17 08:50:07;;;;;;;4.50;2.80;;;;;;;35.19;24.38;96370.19;5052194;28;20425;-68
2021/06/17 08:52:34;;;;;;;3.10;2.37;;;;;;;35.27;24.31;96366.63;5053834;28;20438;-68
2021/06/17 08:55:14;;;;;;;3.80;2.87;;;;;;;35.41;24.54;96379.16;5052007;28;20968;-68
2021/06/17 08:57:40;;;;;;;6.67;3.33;;;;;;;35.47;24.48;96383.28;5053693;28;20480;-68
2021/06/17 09:00:21;;;;;;;3.20;2.57;;;;;;;35.73;23.91;96382.22;5053112;28;20425;-67
2021/06/17 09:02:57;;;;;;;3.10;2.27;;;;;;;36.11;22.71;96381.19;5053186;28;20206;-68
2021/06/17 09:05:24;;;;;;;3.43;3.13;;;;;;;36.23;22.70;96389.38;5043219;28;20789;-66
2021/06/17 09:07:50;;;;;;;2.50;2.23;;;;;;;36.25;23.02;96389.00;5050849;28;20472;-68
2021/06/17 09:10:16;;;;;;;5.43;2.57;;;;;;;35.29;23.58;96399.75;5049406;28;20506;-68
2021/06/17 09:12:50;;;;;;;6.73;3.60;;;;;;;34.39;24.34;96399.81;5052992;28;20798;-68
2021/06/17 09:15:32;;;;;;;10.63;2.90;;;;;;;35.89;23.01;96407.69;5036064;28;20470;-68
2021/06/17 09:18:20;;;;;;;3.83;2.30;;;;;;;36.57;22.13;96406.44;5052776;28;20995;-68
2021/06/17 09:20:56;;;;;;;6.67;3.00;;;;;;;37.32;21.79;96406.28;5051600;28;20401;-68
2021/06/17 09:23:23;;;;;;;6.63;3.00;;;;;;;36.97;21.84;96409.59;5051352;28;20919;-68
2021/06/17 09:26:05;;;;;;;3.03;2.70;;;;;;;36.59;22.20;96404.16;5051782;28;20569;-67
2021/06/17 09:28:44;;;;;;;4.93;2.73;;;;;;;36.96;21.65;96410.72;5052879;28;20404;-67
2021/06/17 09:31:15;;;;;;;7.20;2.70;;;;;;;37.03;21.92;96406.28;5053286;28;20495;-67
2021/06/17 09:33:42;;;;;;;4.33;2.90;;;;;;;36.66;22.46;96413.72;5052836;28;20444;-68
2021/06/17 09:36:08;;;;;;;3.60;2.70;;;;;;;36.77;22.42;96408.56;5052259;28;20453;-67
2021/06/17 09:38:45;;;;;;;4.53;2.93;;;;;;;36.48;23.29;96411.22;5049087;28;20412;-68
2021/06/17 09:41:31;;;;;;;4.87;3.13;;;;;;;37.06;22.46;96421.16;5051714;28;20190;-68
2021/06/17 09:43:57;;;;;;;4.30;2.80;;;;;;;36.52;23.01;96420.31;5051195;28;20412;-68
2021/06/17 09:46:23;;;;;;;3.43;3.13;;;;;;;37.25;21.78;96414.28;5052876;28;20436;-68
2021/06/17 09:48:51;;;;;;;4.70;3.03;;;;;;;37.29;22.02;96415.19;5039809;28;20314;-68
2021/06/17 09:51:40;;;;;;;3.70;3.10;;;;;;;35.62;23.72;96428.97;5050073;28;20522;-68
2021/06/17 09:54:09;;;;;;;3.00;2.80;;;;;;;35.26;24.21;96427.66;5054207;28;20517;-68
2021/06/17 09:56:35;;;;;;;6.00;2.80;;;;;;;33.94;26.27;96430.19;5053215;28;20425;-70
2021/06/17 09:59:03;;;;;;;6.80;3.43;;;;;;;33.74;27.33;96446.03;5052884;28;20475;-68
2021/06/17 10:01:37;;;;;;;12.53;3.67;;;;;;;32.97;28.75;96453.81;5053990;28;20433;-69
2021/06/17 10:04:08;;;;;;;11.43;3.77;;;;;;;32.48;29.82;96454.63;5052676;28;20413;-68
2021/06/17 10:06:35;;;;;;;5.63;3.80;;;;;;;32.17;30.11;96452.69;5053346;28;20434;-68
2021/06/17 10:09:07;;;;;;;6.63;3.70;;;;;;;32.16;30.08;96454.63;5033322;28;20490;-67
2021/06/17 10:11:33;;;;;;;11.47;4.50;;;;;;;32.30;30.31;96453.75;5035727;28;20420;-67
2021/06/17 10:13:59;;;;;;;4.03;3.30;;;;;;;32.42;29.77;96451.25;5052020;28;20406;-68
2021/06/17 10:16:25;;;;;;;4.80;3.90;;;;;;;32.86;29.40;96435.13;5051946;28;20595;-67
2021/06/17 10:18:51;;;;;;;6.07;4.40;;;;;;;33.35;28.46;96443.19;5050312;28;20942;-66
2021/06/17 10:21:17;;;;;;;12.47;4.23;;;;;;;33.39;28.20;96432.50;5048122;28;20227;-66
2021/06/17 10:23:45;;;;;;;5.10;4.00;;;;;;;32.77;28.97;96439.69;5051923;28;20533;-69
2021/06/17 10:26:12;;;;;;;11.10;3.93;;;;;;;33.48;27.88;96432.47;5034422;28;20414;-67
2021/06/17 10:28:44;;;;;;;7.10;4.10;;;;;;;34.10;26.81;96434.00;5050643;28;20413;-67
2021/06/17 10:31:11;;;;;;;12.00;3.73;;;;;;;34.13;26.97;96433.34;5050841;28;20467;-67
2021/06/17 10:33:38;;;;;;;6.37;3.60;;;;;;;34.15;27.09;96427.56;5050170;28;21135;-68
2021/06/17 10:36:22;;;;;;;8.97;3.63;;;;;;;35.10;26.13;96418.47;5032570;28;20853;-67
2021/06/17 10:39:12;;;;;;;6.17;3.60;;;;;;;35.60;25.41;96422.25;5037368;28;20463;-67
2021/06/17 10:41:46;;;;;;;8.23;3.33;;;;;;;36.07;25.03;96412.97;5051710;28;20954;-68
2021/06/17 10:44:42;;;;;;;11.30;4.03;;;;;;;35.79;25.38;96414.38;5034706;28;20422;-67
2021/06/17 10:47:07;;;;;;;9.57;3.60;;;;;;;36.54;24.34;96415.31;5051404;28;20433;-67
2021/06/17 10:49:42;;;;;;;8.70;4.13;;;;;;;36.01;24.79;96422.50;5052533;28;20421;-68
2021/06/17 10:52:25;;;;;;;7.63;3.30;;;;;;;35.44;25.86;96422.88;5049627;28;20185;-67
2021/06/17 10:55:08;;;;;;;7.40;3.73;;;;;;;35.75;25.27;96415.38;5049647;28;20453;-67
2021/06/17 10:57:50;;;;;;;8.17;4.20;;;;;;;35.57;25.88;96414.75;5054754;28;20536;-67
2021/06/17 11:00:22;;;;;;;3.40;3.10;;;;;;;35.64;25.23;96415.00;5051640;28;20413;-67
2021/06/17 11:03:17;;;;;;;6.87;3.73;;;;;;;36.38;24.52;96409.69;5045658;28;20425;-68
2021/06/17 11:05:49;;;;;;;4.80;3.20;;;;;;;35.77;25.34;96424.03;5053806;28;20515;-69
2021/06/17 11:08:25;;;;;;;6.53;3.53;;;;;;;36.42;24.91;96420.75;5050608;28;20435;-68
2021/06/17 11:11:08;;;;;;;6.13;3.83;;;;;;;36.01;25.07;96420.56;5056178;28;20435;-68
2021/06/17 11:13:41;;;;;;;4.20;3.80;;;;;;;35.27;25.52;96412.09;5051494;28;20896;-68
2021/06/17 11:16:13;;;;;;;6.97;3.40;;;;;;;36.68;24.06;96405.97;5050812;28;20456;-68
2021/06/17 11:21:22;;;;;;;7.27;3.60;;;;;;;36.99;23.55;96394.44;5048226;28;20908;-68
2021/06/17 11:23:58;;;;;;;7.70;3.93;;;;;;;37.05;23.57;96400.50;5052006;28;20435;-68
2021/06/17 11:26:39;;;;;;;7.50;3.50;;;;;;;37.75;22.19;96395.75;5051696;28;20467;-69
2021/06/17 11:29:06;;;;;;;5.40;3.17;;;;;;;37.45;22.98;96402.41;5051475;28;20542;-68
2021/06/17 11:31:49;;;;;;;3.70;3.30;;;;;;;37.43;22.89;96396.47;5032783;28;20409;-68
2021/06/17 11:34:36;;;;;;;3.97;3.20;;;;;;;37.74;21.97;96405.91;5049106;28;20543;-68
2021/06/17 11:37:04;;;;;;;7.47;3.40;;;;;;;38.07;21.51;96396.59;5049006;28;20429;-69
2021/06/17 11:39:32;;;;;;;3.90;3.30;;;;;;;37.48;22.48;96395.47;5036011;28;20947;-68
2021/06/17 11:42:00;;;;;;;6.33;3.23;;;;;;;37.47;22.12;96399.34;5051285;28;20476;-67
2021/06/17 11:44:27;;;;;;;4.80;3.33;;;;;;;37.42;22.74;96396.84;5035323;28;20419;-69